sensor_id;sensor_type;location;lat;lon;timestamp;temperature;humidity
2054;DHT22;1032;52.542;13.440;2023-06-22T00:01:12;22.80;99.90
2054;DHT22;1032;52.542;13.440;2023-06-22T00:03:38;22.70;99.90
2054;DHT22;1032;52.542;13.440;2023-06-22T00:06:05;22.70;99.90
2054;DHT22;1032;52.542;13.440;2023-06-22T00:08:32;22.70;99.90
2054;DHT22;1032;52.542;13.440;2023-06-22T00:11:00;22.70;99.90
2054;DHT22;1032;52.542;13.440;2023-06-22T00:13:26;22.60;99.90
2054;DHT22;1032;52.542;13.440;2023-06-22T00:15:53;22.60;99.90
2054;DHT22;1032;52.542;13.440;2023-06-22T00:18:19;22.60;99.90
2054;DHT22;1032;52.542;13.440;2023-06-22T00:20:46;22.50;99.90
2054;DHT22;1032;52.542;13.440;2023-06-22T00:23:13;22.50;99.90
2054;DHT22;1032;52.542;13.440;2023-06-22T00:25:41;22.50;99.90
2054;DHT22;1032;52.542;13.440;2023-06-22T00:28:09;22.40;99.90
2054;DHT22;1032;52.542;13.440;2023-06-22T00:30:36;22.40;99.90
2054;DHT22;1032;52.542;13.440;2023-06-22T00:33:02;22.40;99.90
2054;DHT22;1032;52.542;13.440;2023-06-22T00:35:33;22.30;99.90
2054;DHT22;1032;52.542;13.440;2023-06-22T00:38:01;22.30;99.90
2054;DHT22;1032;52.542;13.440;2023-06-22T00:40:29;22.20;99.90
2054;DHT22;1032;52.542;13.440;2023-06-22T00:42:57;22.20;99.90
2054;DHT22;1032;52.542;13.440;2023-06-22T00:45:26;22.20;99.90
2054;DHT22;1032;52.542;13.440;2023-06-22T00:47:55;22.20;99.90
2054;DHT22;1032;52.542;13.440;2023-06-22T00:50:23;22.10;99.90
2054;DHT22;1032;52.542;13.440;2023-06-22T00:52:52;22.10;99.90
2054;DHT22;1032;52.542;13.440;2023-06-22T00:55:19;22.10;99.90
2054;DHT22;1032;52.542;13.440;2023-06-22T00:57:47;22.10;99.90
2054;DHT22;1032;52.542;13.440;2023-06-22T01:00:15;22.00;99.90
2054;DHT22;1032;52.542;13.440;2023-06-22T01:02:47;22.00;99.90
2054;DHT22;1032;52.542;13.440;2023-06-22T01:05:18;22.00;99.90
2054;DHT22;1032;52.542;13.440;2023-06-22T01:07:57;22.00;99.90
2054;DHT22;1032;52.542;13.440;2023-06-22T01:10:31;21.90;99.90
2054;DHT22;1032;52.542;13.440;2023-06-22T01:13:03;21.90;99.90
2054;DHT22;1032;52.542;13.440;2023-06-22T01:15:36;21.90;99.90
2054;DHT22;1032;52.542;13.440;2023-06-22T01:18:07;21.90;99.90
2054;DHT22;1032;52.542;13.440;2023-06-22T01:20:36;21.90;99.90
2054;DHT22;1032;52.542;13.440;2023-06-22T01:23:11;21.80;99.90
2054;DHT22;1032;52.542;13.440;2023-06-22T01:25:46;21.90;99.90
2054;DHT22;1032;52.542;13.440;2023-06-22T01:28:24;21.80;99.90
2054;DHT22;1032;52.542;13.440;2023-06-22T01:30:54;21.80;99.90
2054;DHT22;1032;52.542;13.440;2023-06-22T01:33:32;21.80;99.90
2054;DHT22;1032;52.542;13.440;2023-06-22T01:36:00;21.70;99.90
2054;DHT22;1032;52.542;13.440;2023-06-22T01:38:31;21.70;99.90
2054;DHT22;1032;52.542;13.440;2023-06-22T01:40:59;21.70;99.90
2054;DHT22;1032;52.542;13.440;2023-06-22T01:43:28;21.70;99.90
2054;DHT22;1032;52.542;13.440;2023-06-22T01:45:59;21.60;99.90
2054;DHT22;1032;52.542;13.440;2023-06-22T01:48:26;21.70;99.90
2054;DHT22;1032;52.542;13.440;2023-06-22T01:50:54;21.60;99.90
2054;DHT22;1032;52.542;13.440;2023-06-22T01:53:21;21.60;99.90
2054;DHT22;1032;52.542;13.440;2023-06-22T01:55:51;21.60;99.90
2054;DHT22;1032;52.542;13.440;2023-06-22T01:58:20;21.60;99.90
2054;DHT22;1032;52.542;13.440;2023-06-22T02:00:50;21.50;99.90
2054;DHT22;1032;52.542;13.440;2023-06-22T02:03:22;21.60;99.90
2054;DHT22;1032;52.542;13.440;2023-06-22T02:05:56;21.60;99.90
2054;DHT22;1032;52.542;13.440;2023-06-22T02:08:27;21.60;99.90
2054;DHT22;1032;52.542;13.440;2023-06-22T02:10:55;21.60;99.90
2054;DHT22;1032;52.542;13.440;2023-06-22T02:13:24;21.50;99.90
2054;DHT22;1032;52.542;13.440;2023-06-22T02:15:51;21.50;99.90
2054;DHT22;1032;52.542;13.440;2023-06-22T02:18:19;21.50;99.90
2054;DHT22;1032;52.542;13.440;2023-06-22T02:20:46;21.50;99.90
2054;DHT22;1032;52.542;13.440;2023-06-22T02:23:12;21.50;99.90
2054;DHT22;1032;52.542;13.440;2023-06-22T02:25:39;21.40;99.90
2054;DHT22;1032;52.542;13.440;2023-06-22T02:28:09;21.30;99.90
2054;DHT22;1032;52.542;13.440;2023-06-22T02:30:37;21.40;99.90
2054;DHT22;1032;52.542;13.440;2023-06-22T02:33:06;21.40;99.90
2054;DHT22;1032;52.542;13.440;2023-06-22T02:35:34;21.40;99.90
2054;DHT22;1032;52.542;13.440;2023-06-22T02:38:03;21.50;99.90
2054;DHT22;1032;52.542;13.440;2023-06-22T02:40:30;21.50;99.90
2054;DHT22;1032;52.542;13.440;2023-06-22T02:42:58;21.50;99.90
2054;DHT22;1032;52.542;13.440;2023-06-22T02:45:27;21.50;99.90
2054;DHT22;1032;52.542;13.440;2023-06-22T02:47:54;21.50;99.90
2054;DHT22;1032;52.542;13.440;2023-06-22T02:50:21;21.70;99.90
2054;DHT22;1032;52.542;13.440;2023-06-22T02:52:49;21.50;99.90
2054;DHT22;1032;52.542;13.440;2023-06-22T02:55:16;21.50;99.90
2054;DHT22;1032;52.542;13.440;2023-06-22T02:57:49;21.50;99.90
2054;DHT22;1032;52.542;13.440;2023-06-22T03:00:18;21.60;99.90
2054;DHT22;1032;52.542;13.440;2023-06-22T03:02:48;21.60;99.90
2054;DHT22;1032;52.542;13.440;2023-06-22T03:05:16;21.60;99.90
2054;DHT22;1032;52.542;13.440;2023-06-22T03:07:44;21.60;99.90
2054;DHT22;1032;52.542;13.440;2023-06-22T03:10:13;21.60;99.90
2054;DHT22;1032;52.542;13.440;2023-06-22T03:12:41;21.60;99.90
2054;DHT22;1032;52.542;13.440;2023-06-22T03:15:10;21.60;99.90
2054;DHT22;1032;52.542;13.440;2023-06-22T03:17:37;21.60;99.90
2054;DHT22;1032;52.542;13.440;2023-06-22T03:20:06;21.50;99.90
2054;DHT22;1032;52.542;13.440;2023-06-22T03:22:34;21.60;99.90
2054;DHT22;1032;52.542;13.440;2023-06-22T03:25:01;21.60;99.90
2054;DHT22;1032;52.542;13.440;2023-06-22T03:27:29;21.60;99.90
2054;DHT22;1032;52.542;13.440;2023-06-22T03:29:56;21.60;99.90
2054;DHT22;1032;52.542;13.440;2023-06-22T03:32:23;21.60;99.90
2054;DHT22;1032;52.542;13.440;2023-06-22T03:34:50;21.60;99.90
2054;DHT22;1032;52.542;13.440;2023-06-22T03:37:17;21.60;99.90
2054;DHT22;1032;52.542;13.440;2023-06-22T03:39:44;21.60;99.90
2054;DHT22;1032;52.542;13.440;2023-06-22T03:42:11;21.70;99.90
2054;DHT22;1032;52.542;13.440;2023-06-22T03:44:40;21.70;99.90
2054;DHT22;1032;52.542;13.440;2023-06-22T03:47:07;21.60;99.90
2054;DHT22;1032;52.542;13.440;2023-06-22T03:49:35;21.70;99.90
2054;DHT22;1032;52.542;13.440;2023-06-22T03:52:02;21.90;99.90
2054;DHT22;1032;52.542;13.440;2023-06-22T03:54:29;21.70;99.90
2054;DHT22;1032;52.542;13.440;2023-06-22T03:56:57;21.80;99.90
2054;DHT22;1032;52.542;13.440;2023-06-22T03:59:24;21.80;99.90
2054;DHT22;1032;52.542;13.440;2023-06-22T04:01:52;21.80;99.90
2054;DHT22;1032;52.542;13.440;2023-06-22T04:04:20;21.90;99.90
2054;DHT22;1032;52.542;13.440;2023-06-22T04:06:46;21.90;99.90
2054;DHT22;1032;52.542;13.440;2023-06-22T04:09:13;22.00;99.90
2054;DHT22;1032;52.542;13.440;2023-06-22T04:11:40;22.00;99.90
2054;DHT22;1032;52.542;13.440;2023-06-22T04:14:06;22.10;99.90
2054;DHT22;1032;52.542;13.440;2023-06-22T04:16:33;22.10;99.90
2054;DHT22;1032;52.542;13.440;2023-06-22T04:19:01;22.20;99.90
2054;DHT22;1032;52.542;13.440;2023-06-22T04:21:27;22.30;99.90
2054;DHT22;1032;52.542;13.440;2023-06-22T04:23:54;22.40;99.90
2054;DHT22;1032;52.542;13.440;2023-06-22T04:26:20;22.40;99.90
2054;DHT22;1032;52.542;13.440;2023-06-22T04:28:47;22.60;99.90
2054;DHT22;1032;52.542;13.440;2023-06-22T04:31:17;22.60;99.90
2054;DHT22;1032;52.542;13.440;2023-06-22T04:33:44;22.70;99.90
2054;DHT22;1032;52.542;13.440;2023-06-22T04:36:12;22.80;99.90
2054;DHT22;1032;52.542;13.440;2023-06-22T04:38:40;22.90;99.90
2054;DHT22;1032;52.542;13.440;2023-06-22T04:41:07;23.00;99.90
2054;DHT22;1032;52.542;13.440;2023-06-22T04:43:35;23.20;99.90
2054;DHT22;1032;52.542;13.440;2023-06-22T04:46:02;23.30;99.90
2054;DHT22;1032;52.542;13.440;2023-06-22T04:48:29;23.20;99.90
2054;DHT22;1032;52.542;13.440;2023-06-22T04:50:58;23.30;99.90
2054;DHT22;1032;52.542;13.440;2023-06-22T04:53:31;23.40;99.90
2054;DHT22;1032;52.542;13.440;2023-06-22T04:55:58;23.70;99.90
2054;DHT22;1032;52.542;13.440;2023-06-22T04:58:24;23.80;99.90
2054;DHT22;1032;52.542;13.440;2023-06-22T05:00:54;23.90;99.90
2054;DHT22;1032;52.542;13.440;2023-06-22T05:03:22;24.00;99.80
2054;DHT22;1032;52.542;13.440;2023-06-22T05:05:51;24.10;99.40
2054;DHT22;1032;52.542;13.440;2023-06-22T05:08:18;24.10;98.80
2054;DHT22;1032;52.542;13.440;2023-06-22T05:10:46;24.10;98.30
2054;DHT22;1032;52.542;13.440;2023-06-22T05:13:12;24.10;98.20
2054;DHT22;1032;52.542;13.440;2023-06-22T05:15:39;24.10;97.90
2054;DHT22;1032;52.542;13.440;2023-06-22T05:18:06;24.40;97.90
2054;DHT22;1032;52.542;13.440;2023-06-22T05:20:32;24.40;97.70
2054;DHT22;1032;52.542;13.440;2023-06-22T05:23:01;24.70;97.60
2054;DHT22;1032;52.542;13.440;2023-06-22T05:25:28;24.70;97.30
2054;DHT22;1032;52.542;13.440;2023-06-22T05:27:59;24.50;97.00
2054;DHT22;1032;52.542;13.440;2023-06-22T05:30:27;24.70;97.10
2054;DHT22;1032;52.542;13.440;2023-06-22T05:32:54;24.70;97.00
2054;DHT22;1032;52.542;13.440;2023-06-22T05:35:20;24.80;97.00
2054;DHT22;1032;52.542;13.440;2023-06-22T05:37:47;24.90;97.00
2054;DHT22;1032;52.542;13.440;2023-06-22T05:40:14;24.70;96.80
2054;DHT22;1032;52.542;13.440;2023-06-22T05:42:41;24.80;96.90
2054;DHT22;1032;52.542;13.440;2023-06-22T05:45:09;24.80;96.90
2054;DHT22;1032;52.542;13.440;2023-06-22T05:47:36;24.70;96.80
2054;DHT22;1032;52.542;13.440;2023-06-22T05:50:03;24.70;96.80
2054;DHT22;1032;52.542;13.440;2023-06-22T05:52:32;24.60;96.90
2054;DHT22;1032;52.542;13.440;2023-06-22T05:54:59;24.60;97.00
2054;DHT22;1032;52.542;13.440;2023-06-22T05:57:25;24.70;96.60
2054;DHT22;1032;52.542;13.440;2023-06-22T05:59:54;24.70;96.40
2054;DHT22;1032;52.542;13.440;2023-06-22T06:02:23;24.90;96.30
2054;DHT22;1032;52.542;13.440;2023-06-22T06:04:50;25.00;96.10
2054;DHT22;1032;52.542;13.440;2023-06-22T06:07:18;25.20;95.80
2054;DHT22;1032;52.542;13.440;2023-06-22T06:09:44;25.30;95.70
2054;DHT22;1032;52.542;13.440;2023-06-22T06:12:11;25.50;95.60
2054;DHT22;1032;52.542;13.440;2023-06-22T06:14:38;25.50;95.40
2054;DHT22;1032;52.542;13.440;2023-06-22T06:17:08;25.60;95.40
2054;DHT22;1032;52.542;13.440;2023-06-22T06:19:36;25.60;95.00
2054;DHT22;1032;52.542;13.440;2023-06-22T06:22:03;25.70;94.70
2054;DHT22;1032;52.542;13.440;2023-06-22T06:24:30;25.80;94.50
2054;DHT22;1032;52.542;13.440;2023-06-22T06:26:56;25.90;94.20
2054;DHT22;1032;52.542;13.440;2023-06-22T06:29:23;26.00;93.90
2054;DHT22;1032;52.542;13.440;2023-06-22T06:31:50;26.10;93.60
2054;DHT22;1032;52.542;13.440;2023-06-22T06:34:16;26.10;93.40
2054;DHT22;1032;52.542;13.440;2023-06-22T06:36:44;26.20;93.10
2054;DHT22;1032;52.542;13.440;2023-06-22T06:39:11;26.20;92.70
2054;DHT22;1032;52.542;13.440;2023-06-22T06:41:38;26.20;92.30
2054;DHT22;1032;52.542;13.440;2023-06-22T06:44:13;26.30;92.30
2054;DHT22;1032;52.542;13.440;2023-06-22T06:46:40;26.30;92.00
2054;DHT22;1032;52.542;13.440;2023-06-22T06:49:07;26.40;91.80
2054;DHT22;1032;52.542;13.440;2023-06-22T06:51:34;26.40;91.40
2054;DHT22;1032;52.542;13.440;2023-06-22T06:54:02;26.40;91.10
2054;DHT22;1032;52.542;13.440;2023-06-22T06:56:29;26.50;91.20
2054;DHT22;1032;52.542;13.440;2023-06-22T06:58:58;26.50;90.90
2054;DHT22;1032;52.542;13.440;2023-06-22T07:01:25;26.40;89.90
2054;DHT22;1032;52.542;13.440;2023-06-22T07:03:51;26.40;90.00
2054;DHT22;1032;52.542;13.440;2023-06-22T07:06:19;26.40;90.10
2054;DHT22;1032;52.542;13.440;2023-06-22T07:08:45;26.30;90.10
2054;DHT22;1032;52.542;13.440;2023-06-22T07:11:13;26.30;89.10
2054;DHT22;1032;52.542;13.440;2023-06-22T07:13:40;26.40;89.20
2054;DHT22;1032;52.542;13.440;2023-06-22T07:16:06;26.50;88.80
2054;DHT22;1032;52.542;13.440;2023-06-22T07:18:33;26.50;88.10
2054;DHT22;1032;52.542;13.440;2023-06-22T07:20:59;26.60;87.80
2054;DHT22;1032;52.542;13.440;2023-06-22T07:23:26;26.70;86.50
2054;DHT22;1032;52.542;13.440;2023-06-22T07:25:53;26.90;86.60
2054;DHT22;1032;52.542;13.440;2023-06-22T07:28:20;27.00;86.60
2054;DHT22;1032;52.542;13.440;2023-06-22T07:30:47;27.10;86.00
2054;DHT22;1032;52.542;13.440;2023-06-22T07:33:14;27.20;84.50
2054;DHT22;1032;52.542;13.440;2023-06-22T07:35:40;27.30;83.50
2054;DHT22;1032;52.542;13.440;2023-06-22T07:38:07;27.50;82.90
2054;DHT22;1032;52.542;13.440;2023-06-22T07:40:34;27.60;81.40
2054;DHT22;1032;52.542;13.440;2023-06-22T07:43:01;27.60;78.80
2054;DHT22;1032;52.542;13.440;2023-06-22T07:45:30;27.60;78.60
2054;DHT22;1032;52.542;13.440;2023-06-22T07:47:58;27.80;78.40
2054;DHT22;1032;52.542;13.440;2023-06-22T07:50:25;27.80;75.80
2054;DHT22;1032;52.542;13.440;2023-06-22T07:52:52;27.80;75.70
2054;DHT22;1032;52.542;13.440;2023-06-22T07:55:18;27.80;76.30
2054;DHT22;1032;52.542;13.440;2023-06-22T07:57:48;28.00;76.10
2054;DHT22;1032;52.542;13.440;2023-06-22T08:00:17;28.10;75.90
2054;DHT22;1032;52.542;13.440;2023-06-22T08:02:46;28.30;75.80
2054;DHT22;1032;52.542;13.440;2023-06-22T08:05:14;28.40;74.50
2054;DHT22;1032;52.542;13.440;2023-06-22T08:07:40;28.40;74.30
2054;DHT22;1032;52.542;13.440;2023-06-22T08:10:10;28.50;73.50
2054;DHT22;1032;52.542;13.440;2023-06-22T08:12:37;28.50;72.60
2054;DHT22;1032;52.542;13.440;2023-06-22T08:15:05;28.60;72.60
2054;DHT22;1032;52.542;13.440;2023-06-22T08:17:33;28.60;72.20
2054;DHT22;1032;52.542;13.440;2023-06-22T08:20:00;28.70;71.30
2054;DHT22;1032;52.542;13.440;2023-06-22T08:22:31;28.70;70.80
2054;DHT22;1032;52.542;13.440;2023-06-22T08:24:58;28.80;70.60
2054;DHT22;1032;52.542;13.440;2023-06-22T08:27:25;28.80;70.20
2054;DHT22;1032;52.542;13.440;2023-06-22T08:29:53;28.90;70.00
2054;DHT22;1032;52.542;13.440;2023-06-22T08:32:23;28.90;69.10
2054;DHT22;1032;52.542;13.440;2023-06-22T08:34:51;28.90;68.70
2054;DHT22;1032;52.542;13.440;2023-06-22T08:37:19;29.00;67.90
2054;DHT22;1032;52.542;13.440;2023-06-22T08:39:49;28.90;67.40
2054;DHT22;1032;52.542;13.440;2023-06-22T08:42:15;29.00;67.60
2054;DHT22;1032;52.542;13.440;2023-06-22T08:44:42;29.00;67.40
2054;DHT22;1032;52.542;13.440;2023-06-22T08:47:09;29.10;68.60
2054;DHT22;1032;52.542;13.440;2023-06-22T08:49:35;29.20;67.90
2054;DHT22;1032;52.542;13.440;2023-06-22T08:52:02;29.20;67.80
2054;DHT22;1032;52.542;13.440;2023-06-22T08:54:30;29.20;67.40
2054;DHT22;1032;52.542;13.440;2023-06-22T08:56:58;29.20;67.20
2054;DHT22;1032;52.542;13.440;2023-06-22T08:59:25;29.20;67.20
2054;DHT22;1032;52.542;13.440;2023-06-22T09:01:51;29.20;66.60
2054;DHT22;1032;52.542;13.440;2023-06-22T09:04:18;29.30;66.60
2054;DHT22;1032;52.542;13.440;2023-06-22T09:06:47;29.40;66.50
2054;DHT22;1032;52.542;13.440;2023-06-22T09:09:16;29.30;66.20
2054;DHT22;1032;52.542;13.440;2023-06-22T09:11:44;29.40;65.80
2054;DHT22;1032;52.542;13.440;2023-06-22T09:14:11;29.40;65.20
2054;DHT22;1032;52.542;13.440;2023-06-22T09:16:38;29.40;64.80
2054;DHT22;1032;52.542;13.440;2023-06-22T09:19:04;29.40;64.10
2054;DHT22;1032;52.542;13.440;2023-06-22T09:21:31;29.50;63.80
2054;DHT22;1032;52.542;13.440;2023-06-22T09:23:57;29.40;62.20
2054;DHT22;1032;52.542;13.440;2023-06-22T09:26:24;29.50;62.70
2054;DHT22;1032;52.542;13.440;2023-06-22T09:28:52;29.60;62.00
2054;DHT22;1032;52.542;13.440;2023-06-22T09:31:18;29.70;61.00
2054;DHT22;1032;52.542;13.440;2023-06-22T09:33:51;29.60;60.70
2054;DHT22;1032;52.542;13.440;2023-06-22T09:36:17;29.60;61.30
2054;DHT22;1032;52.542;13.440;2023-06-22T09:38:44;29.60;61.70
2054;DHT22;1032;52.542;13.440;2023-06-22T09:41:10;29.60;61.50
2054;DHT22;1032;52.542;13.440;2023-06-22T09:43:37;29.60;60.20
2054;DHT22;1032;52.542;13.440;2023-06-22T09:46:05;29.60;59.70
2054;DHT22;1032;52.542;13.440;2023-06-22T09:48:32;29.50;59.70
2054;DHT22;1032;52.542;13.440;2023-06-22T09:50:59;29.40;59.80
2054;DHT22;1032;52.542;13.440;2023-06-22T09:53:25;29.30;60.00
2054;DHT22;1032;52.542;13.440;2023-06-22T09:55:52;29.30;61.10
2054;DHT22;1032;52.542;13.440;2023-06-22T09:58:19;29.20;62.20
2054;DHT22;1032;52.542;13.440;2023-06-22T10:00:45;29.20;62.90
2054;DHT22;1032;52.542;13.440;2023-06-22T10:03:13;29.20;62.90
2054;DHT22;1032;52.542;13.440;2023-06-22T10:05:40;29.20;62.30
2054;DHT22;1032;52.542;13.440;2023-06-22T10:08:07;29.10;61.70
2054;DHT22;1032;52.542;13.440;2023-06-22T10:10:35;29.00;61.60
2054;DHT22;1032;52.542;13.440;2023-06-22T10:13:09;29.00;61.00
2054;DHT22;1032;52.542;13.440;2023-06-22T10:15:37;29.00;61.20
2054;DHT22;1032;52.542;13.440;2023-06-22T10:18:04;29.00;61.40
2054;DHT22;1032;52.542;13.440;2023-06-22T10:20:32;28.90;61.20
2054;DHT22;1032;52.542;13.440;2023-06-22T10:22:58;29.00;61.70
2054;DHT22;1032;52.542;13.440;2023-06-22T10:25:27;29.00;61.90
2054;DHT22;1032;52.542;13.440;2023-06-22T10:27:54;29.00;62.20
2054;DHT22;1032;52.542;13.440;2023-06-22T10:30:20;29.00;62.70
2054;DHT22;1032;52.542;13.440;2023-06-22T10:32:47;28.90;62.80
2054;DHT22;1032;52.542;13.440;2023-06-22T10:35:14;28.90;63.10
2054;DHT22;1032;52.542;13.440;2023-06-22T10:37:43;28.90;63.20
2054;DHT22;1032;52.542;13.440;2023-06-22T10:40:11;28.90;63.50
2054;DHT22;1032;52.542;13.440;2023-06-22T10:42:38;28.90;63.50
2054;DHT22;1032;52.542;13.440;2023-06-22T10:45:06;28.90;63.40
2054;DHT22;1032;52.542;13.440;2023-06-22T10:47:33;29.00;63.50
2054;DHT22;1032;52.542;13.440;2023-06-22T10:49:59;29.00;63.50
2054;DHT22;1032;52.542;13.440;2023-06-22T10:52:26;29.10;63.30
2054;DHT22;1032;52.542;13.440;2023-06-22T10:54:54;29.10;63.20
2054;DHT22;1032;52.542;13.440;2023-06-22T10:57:21;29.10;62.90
2054;DHT22;1032;52.542;13.440;2023-06-22T10:59:48;29.10;62.50
2054;DHT22;1032;52.542;13.440;2023-06-22T11:02:15;29.00;62.40
2054;DHT22;1032;52.542;13.440;2023-06-22T11:04:41;28.90;62.70
2054;DHT22;1032;52.542;13.440;2023-06-22T11:07:09;28.80;63.10
2054;DHT22;1032;52.542;13.440;2023-06-22T11:09:36;28.70;63.40
2054;DHT22;1032;52.542;13.440;2023-06-22T11:12:06;28.60;63.80
2054;DHT22;1032;52.542;13.440;2023-06-22T11:14:33;28.60;63.50
2054;DHT22;1032;52.542;13.440;2023-06-22T11:16:59;28.60;63.50
2054;DHT22;1032;52.542;13.440;2023-06-22T11:19:26;28.60;63.50
2054;DHT22;1032;52.542;13.440;2023-06-22T11:21:53;28.60;63.40
2054;DHT22;1032;52.542;13.440;2023-06-22T11:24:19;28.60;63.20
2054;DHT22;1032;52.542;13.440;2023-06-22T11:26:46;28.60;63.00
2054;DHT22;1032;52.542;13.440;2023-06-22T11:29:14;28.70;63.00
2054;DHT22;1032;52.542;13.440;2023-06-22T11:31:40;28.80;62.40
2054;DHT22;1032;52.542;13.440;2023-06-22T11:34:08;28.90;62.30
2054;DHT22;1032;52.542;13.440;2023-06-22T11:36:35;28.90;62.00
2054;DHT22;1032;52.542;13.440;2023-06-22T11:39:02;28.90;61.60
2054;DHT22;1032;52.542;13.440;2023-06-22T11:41:30;28.90;61.60
2054;DHT22;1032;52.542;13.440;2023-06-22T11:43:57;28.90;61.40
2054;DHT22;1032;52.542;13.440;2023-06-22T11:46:24;29.10;61.40
2054;DHT22;1032;52.542;13.440;2023-06-22T11:48:51;29.10;60.90
2054;DHT22;1032;52.542;13.440;2023-06-22T11:51:18;29.20;60.90
2054;DHT22;1032;52.542;13.440;2023-06-22T11:53:44;29.10;60.40
2054;DHT22;1032;52.542;13.440;2023-06-22T11:56:11;29.10;60.60
2054;DHT22;1032;52.542;13.440;2023-06-22T11:58:37;29.10;60.20
2054;DHT22;1032;52.542;13.440;2023-06-22T12:01:04;29.10;60.10
2054;DHT22;1032;52.542;13.440;2023-06-22T12:03:32;29.10;60.10
2054;DHT22;1032;52.542;13.440;2023-06-22T12:05:59;29.20;60.40
2054;DHT22;1032;52.542;13.440;2023-06-22T12:08:26;29.20;60.20
2054;DHT22;1032;52.542;13.440;2023-06-22T12:10:52;29.20;59.90
2054;DHT22;1032;52.542;13.440;2023-06-22T12:13:20;29.00;59.80
2054;DHT22;1032;52.542;13.440;2023-06-22T12:15:46;28.90;59.90
2054;DHT22;1032;52.542;13.440;2023-06-22T12:18:13;28.90;60.10
2054;DHT22;1032;52.542;13.440;2023-06-22T12:20:41;28.90;60.20
2054;DHT22;1032;52.542;13.440;2023-06-22T12:23:08;28.90;60.30
2054;DHT22;1032;52.542;13.440;2023-06-22T12:25:34;29.10;60.10
2054;DHT22;1032;52.542;13.440;2023-06-22T12:28:01;29.10;60.30
2054;DHT22;1032;52.542;13.440;2023-06-22T12:30:28;29.10;60.20
2054;DHT22;1032;52.542;13.440;2023-06-22T12:32:54;29.20;60.50
2054;DHT22;1032;52.542;13.440;2023-06-22T12:35:21;29.20;60.20
2054;DHT22;1032;52.542;13.440;2023-06-22T12:37:49;29.30;60.00
2054;DHT22;1032;52.542;13.440;2023-06-22T12:40:15;29.20;59.90
2054;DHT22;1032;52.542;13.440;2023-06-22T12:42:42;29.20;60.00
2054;DHT22;1032;52.542;13.440;2023-06-22T12:45:09;29.10;60.00
2054;DHT22;1032;52.542;13.440;2023-06-22T12:47:36;29.00;60.20
2054;DHT22;1032;52.542;13.440;2023-06-22T12:50:03;29.00;60.30
2054;DHT22;1032;52.542;13.440;2023-06-22T12:52:30;29.10;60.20
2054;DHT22;1032;52.542;13.440;2023-06-22T12:54:59;29.00;60.40
2054;DHT22;1032;52.542;13.440;2023-06-22T12:57:26;28.90;60.40
2054;DHT22;1032;52.542;13.440;2023-06-22T12:59:52;28.80;60.50
2054;DHT22;1032;52.542;13.440;2023-06-22T13:02:19;28.80;61.20
2054;DHT22;1032;52.542;13.440;2023-06-22T13:04:45;28.80;61.20
2054;DHT22;1032;52.542;13.440;2023-06-22T13:07:12;28.80;60.90
2054;DHT22;1032;52.542;13.440;2023-06-22T13:09:39;28.90;60.90
2054;DHT22;1032;52.542;13.440;2023-06-22T13:12:08;28.90;61.20
2054;DHT22;1032;52.542;13.440;2023-06-22T13:14:35;29.00;61.20
2054;DHT22;1032;52.542;13.440;2023-06-22T13:17:01;29.00;60.90
2054;DHT22;1032;52.542;13.440;2023-06-22T13:19:28;29.10;60.80
2054;DHT22;1032;52.542;13.440;2023-06-22T13:21:58;29.20;60.30
2054;DHT22;1032;52.542;13.440;2023-06-22T13:24:24;29.40;60.00
2054;DHT22;1032;52.542;13.440;2023-06-22T13:26:51;29.40;60.00
2054;DHT22;1032;52.542;13.440;2023-06-22T13:29:19;29.40;60.00
2054;DHT22;1032;52.542;13.440;2023-06-22T13:31:45;29.30;60.30
2054;DHT22;1032;52.542;13.440;2023-06-22T13:34:12;29.40;60.00
2054;DHT22;1032;52.542;13.440;2023-06-22T13:36:39;29.30;60.00
2054;DHT22;1032;52.542;13.440;2023-06-22T13:39:06;29.20;60.20
2054;DHT22;1032;52.542;13.440;2023-06-22T13:41:32;29.20;60.60
2054;DHT22;1032;52.542;13.440;2023-06-22T13:43:59;29.20;60.90
2054;DHT22;1032;52.542;13.440;2023-06-22T13:46:28;29.10;60.70
2054;DHT22;1032;52.542;13.440;2023-06-22T13:48:55;29.10;60.60
2054;DHT22;1032;52.542;13.440;2023-06-22T13:51:21;29.10;60.90
2054;DHT22;1032;52.542;13.440;2023-06-22T13:53:48;29.00;61.00
2054;DHT22;1032;52.542;13.440;2023-06-22T13:56:14;29.00;61.30
2054;DHT22;1032;52.542;13.440;2023-06-22T13:58:41;29.00;61.30
2054;DHT22;1032;52.542;13.440;2023-06-22T14:01:09;28.90;61.00
2054;DHT22;1032;52.542;13.440;2023-06-22T14:03:37;29.00;61.40
2054;DHT22;1032;52.542;13.440;2023-06-22T14:06:03;28.90;61.30
2054;DHT22;1032;52.542;13.440;2023-06-22T14:08:30;28.90;61.60
2054;DHT22;1032;52.542;13.440;2023-06-22T14:10:57;28.50;61.10
2054;DHT22;1032;52.542;13.440;2023-06-22T14:13:24;28.90;61.20
2054;DHT22;1032;52.542;13.440;2023-06-22T14:15:50;29.00;61.20
2054;DHT22;1032;52.542;13.440;2023-06-22T14:18:17;29.00;61.10
2054;DHT22;1032;52.542;13.440;2023-06-22T14:20:45;29.00;61.10
2054;DHT22;1032;52.542;13.440;2023-06-22T14:23:13;29.00;61.40
2054;DHT22;1032;52.542;13.440;2023-06-22T14:25:40;29.00;61.40
2054;DHT22;1032;52.542;13.440;2023-06-22T14:28:07;29.00;61.70
2054;DHT22;1032;52.542;13.440;2023-06-22T14:30:33;28.90;62.70
2054;DHT22;1032;52.542;13.440;2023-06-22T14:33:00;28.90;62.00
2054;DHT22;1032;52.542;13.440;2023-06-22T14:35:27;29.00;62.40
2054;DHT22;1032;52.542;13.440;2023-06-22T14:37:55;29.00;61.90
2054;DHT22;1032;52.542;13.440;2023-06-22T14:40:21;28.90;61.80
2054;DHT22;1032;52.542;13.440;2023-06-22T14:42:48;29.00;62.10
2054;DHT22;1032;52.542;13.440;2023-06-22T14:45:15;28.90;61.80
2054;DHT22;1032;52.542;13.440;2023-06-22T14:47:41;28.90;61.80
2054;DHT22;1032;52.542;13.440;2023-06-22T14:50:08;28.90;62.10
2054;DHT22;1032;52.542;13.440;2023-06-22T14:52:35;28.90;61.90
2054;DHT22;1032;52.542;13.440;2023-06-22T14:55:04;28.90;61.90
2054;DHT22;1032;52.542;13.440;2023-06-22T14:57:31;28.90;62.00
2054;DHT22;1032;52.542;13.440;2023-06-22T14:59:57;28.50;61.70
2054;DHT22;1032;52.542;13.440;2023-06-22T15:02:24;28.90;62.10
2054;DHT22;1032;52.542;13.440;2023-06-22T15:04:51;29.90;63.10
2054;DHT22;1032;52.542;13.440;2023-06-22T15:07:18;28.90;62.60
2054;DHT22;1032;52.542;13.440;2023-06-22T15:09:45;29.00;62.40
2054;DHT22;1032;52.542;13.440;2023-06-22T15:12:13;28.90;62.30
2054;DHT22;1032;52.542;13.440;2023-06-22T15:14:40;28.90;62.40
2054;DHT22;1032;52.542;13.440;2023-06-22T15:17:07;28.90;62.60
2054;DHT22;1032;52.542;13.440;2023-06-22T15:19:35;28.90;62.80
2054;DHT22;1032;52.542;13.440;2023-06-22T15:22:03;28.90;62.50
2054;DHT22;1032;52.542;13.440;2023-06-22T15:24:31;29.00;62.40
2054;DHT22;1032;52.542;13.440;2023-06-22T15:26:57;29.00;62.40
2054;DHT22;1032;52.542;13.440;2023-06-22T15:29:26;28.80;62.80
2054;DHT22;1032;52.542;13.440;2023-06-22T15:31:53;28.80;63.00
2054;DHT22;1032;52.542;13.440;2023-06-22T15:34:19;28.80;63.30
2054;DHT22;1032;52.542;13.440;2023-06-22T15:36:46;28.90;64.40
2054;DHT22;1032;52.542;13.440;2023-06-22T15:39:13;28.90;63.10
2054;DHT22;1032;52.542;13.440;2023-06-22T15:41:40;29.00;62.90
2054;DHT22;1032;52.542;13.440;2023-06-22T15:44:07;28.90;63.10
2054;DHT22;1032;52.542;13.440;2023-06-22T15:46:35;28.90;63.30